createdAt,value
2017-12-25T00:00:27.265Z,0
2017-12-25T00:01:30.248Z,0
2017-12-25T00:02:32.687Z,0
2017-12-25T00:03:35.085Z,0
2017-12-25T00:04:37.509Z,0
2017-12-25T00:05:39.933Z,0
2017-12-25T00:06:42.360Z,0
2017-12-25T00:07:45.087Z,0
2017-12-25T00:08:47.507Z,0
2017-12-25T00:09:50.208Z,0
2017-12-25T00:10:52.912Z,0
2017-12-25T00:11:55.330Z,0
2017-12-25T00:12:57.735Z,0
2017-12-25T00:14:00.151Z,0
2017-12-25T00:15:02.863Z,0
2017-12-25T00:16:05.568Z,0
2017-12-25T00:17:07.988Z,0
2017-12-25T00:18:10.407Z,0
2017-12-25T00:19:12.816Z,0
2017-12-25T00:20:15.241Z,0
2017-12-25T00:21:17.651Z,0
2017-12-25T00:22:20.071Z,0
2017-12-25T00:23:22.491Z,0
2017-12-25T00:24:24.927Z,0
2017-12-25T00:25:27.630Z,0
2017-12-25T00:26:30.057Z,0
2017-12-25T00:27:32.472Z,0
2017-12-25T00:28:34.890Z,0
2017-12-25T00:29:37.317Z,0
2017-12-25T00:30:39.727Z,0
2017-12-25T00:31:42.131Z,0
2017-12-25T00:32:44.554Z,0
2017-12-25T00:33:46.968Z,0
2017-12-25T00:34:49.397Z,0
2017-12-25T00:35:51.811Z,0
2017-12-25T00:36:54.214Z,0
2017-12-25T00:37:56.638Z,0
2017-12-25T00:38:59.055Z,0
2017-12-25T00:40:01.751Z,0
2017-12-25T00:41:04.164Z,0
2017-12-25T00:42:06.881Z,0
2017-12-25T00:43:09.583Z,0
2017-12-25T00:44:12.014Z,0
2017-12-25T00:45:14.712Z,0
2017-12-25T00:46:17.119Z,0
2017-12-25T00:47:19.541Z,0
2017-12-25T00:48:21.962Z,0
2017-12-25T00:49:24.383Z,0
2017-12-25T00:50:27.083Z,0
2017-12-25T00:51:29.506Z,0
2017-12-25T00:52:31.919Z,0
2017-12-25T00:53:34.347Z,0
2017-12-25T00:54:37.079Z,0
2017-12-25T00:55:39.488Z,0
2017-12-25T00:56:41.903Z,0
2017-12-25T00:57:44.315Z,0
2017-12-25T00:58:46.738Z,0
2017-12-25T00:59:49.159Z,0
2017-12-25T01:00:51.577Z,0
2017-12-25T01:01:53.991Z,0
2017-12-25T01:02:56.420Z,0
2017-12-25T01:03:58.839Z,0
2017-12-25T01:05:01.249Z,0
2017-12-25T01:06:03.669Z,0
2017-12-25T01:07:06.092Z,0
2017-12-25T01:08:08.498Z,0
2017-12-25T01:09:10.926Z,0
2017-12-25T01:10:13.325Z,0
2017-12-25T01:11:15.748Z,0
2017-12-25T01:12:18.167Z,0
2017-12-25T01:13:20.582Z,0
2017-12-25T01:14:23.000Z,0
2017-12-25T01:15:25.416Z,0
2017-12-25T01:16:27.837Z,0
2017-12-25T01:17:30.521Z,0
2017-12-25T01:18:32.940Z,0
2017-12-25T01:19:35.665Z,0
2017-12-25T01:20:38.382Z,0
2017-12-25T01:21:41.091Z,0
2017-12-25T01:22:43.505Z,0
2017-12-25T01:23:45.921Z,0
2017-12-25T01:24:48.343Z,0
2017-12-25T01:25:50.756Z,0
2017-12-25T01:26:53.176Z,0
2017-12-25T01:27:55.601Z,0
2017-12-25T01:28:58.296Z,0
2017-12-25T01:30:00.717Z,0
2017-12-25T01:31:03.140Z,0
2017-12-25T01:32:05.553Z,0
2017-12-25T01:33:07.968Z,0
2017-12-25T01:34:10.393Z,0
2017-12-25T01:35:12.804Z,0
2017-12-25T01:36:15.228Z,0
2017-12-25T01:37:17.638Z,0
2017-12-25T01:38:20.064Z,0
2017-12-25T01:39:22.474Z,0
2017-12-25T01:40:24.895Z,0
2017-12-25T01:41:27.304Z,0
2017-12-25T01:42:29.727Z,0
2017-12-25T01:43:32.143Z,0
2017-12-25T01:44:34.561Z,0
2017-12-25T01:45:36.968Z,0
2017-12-25T01:46:39.383Z,0
2017-12-25T01:47:41.850Z,0
2017-12-25T01:48:44.211Z,0
2017-12-25T01:49:46.629Z,0
2017-12-25T01:50:49.041Z,0
2017-12-25T01:51:51.452Z,0
2017-12-25T01:52:53.888Z,0
2017-12-25T01:53:56.291Z,0
2017-12-25T01:54:58.719Z,0
2017-12-25T01:56:01.135Z,0
2017-12-25T01:57:03.552Z,0
2017-12-25T01:58:05.973Z,0
2017-12-25T01:59:08.395Z,0
2017-12-25T02:00:10.800Z,0
2017-12-25T02:01:13.214Z,0
2017-12-25T02:02:15.633Z,0
2017-12-25T02:03:18.047Z,0
2017-12-25T02:04:20.460Z,0
2017-12-25T02:05:22.876Z,0
2017-12-25T02:06:25.575Z,0
2017-12-25T02:07:28.279Z,0
2017-12-25T02:08:30.701Z,0
2017-12-25T02:09:33.106Z,0
2017-12-25T02:10:35.529Z,0
2017-12-25T02:11:37.940Z,0
2017-12-25T02:12:40.364Z,0
2017-12-25T02:13:42.782Z,0
2017-12-25T02:14:45.192Z,0
2017-12-25T02:15:47.606Z,0
2017-12-25T02:16:50.311Z,0
2017-12-25T02:17:52.725Z,0
2017-12-25T02:18:55.129Z,0
2017-12-25T02:19:58.114Z,0
2017-12-25T02:21:00.811Z,0
2017-12-25T02:22:03.231Z,0
2017-12-25T02:23:05.645Z,0
2017-12-25T02:24:08.338Z,0
2017-12-25T02:25:10.755Z,0
2017-12-25T02:26:13.174Z,0
2017-12-25T02:27:15.587Z,0
2017-12-25T02:28:18.274Z,0
2017-12-25T02:29:20.688Z,0
2017-12-25T02:30:23.102Z,0
2017-12-25T02:31:25.524Z,0
2017-12-25T02:32:28.220Z,0
2017-12-25T02:33:30.654Z,0
2017-12-25T02:34:33.068Z,0
2017-12-25T02:35:36.352Z,0
2017-12-25T02:36:38.767Z,0
2017-12-25T02:37:41.181Z,0
2017-12-25T02:38:43.599Z,0
2017-12-25T02:39:46.015Z,0
2017-12-25T02:40:48.428Z,0
2017-12-25T02:41:50.841Z,0
2017-12-25T02:42:53.266Z,0
2017-12-25T02:43:55.970Z,0
2017-12-25T02:44:58.381Z,0
2017-12-25T02:46:01.092Z,0
2017-12-25T02:47:03.509Z,0
2017-12-25T02:48:05.920Z,0
2017-12-25T02:49:08.341Z,0
2017-12-25T02:50:11.025Z,0
2017-12-25T02:51:13.441Z,0
2017-12-25T02:52:15.866Z,0
2017-12-25T02:53:18.277Z,0
2017-12-25T02:54:20.685Z,0
2017-12-25T02:55:23.119Z,0
2017-12-25T02:56:25.527Z,0
2017-12-25T02:57:27.942Z,0
2017-12-25T02:58:30.668Z,0
2017-12-25T02:59:33.076Z,0
2017-12-25T03:00:35.809Z,0
2017-12-25T03:01:38.217Z,0
2017-12-25T03:02:40.668Z,0
2017-12-25T03:03:43.082Z,0
2017-12-25T03:04:45.502Z,0
2017-12-25T03:05:47.917Z,0
2017-12-25T03:06:50.321Z,0
2017-12-25T03:07:53.027Z,0
2017-12-25T03:08:55.436Z,0
2017-12-25T03:09:57.856Z,0
2017-12-25T03:11:00.288Z,0
2017-12-25T03:12:02.704Z,0
2017-12-25T03:13:05.119Z,0
2017-12-25T03:14:07.538Z,0
2017-12-25T03:15:10.517Z,0
2017-12-25T03:16:12.940Z,0
2017-12-25T03:17:15.357Z,0
2017-12-25T03:18:17.765Z,0
2017-12-25T03:19:20.244Z,0
2017-12-25T03:20:23.014Z,0
2017-12-25T03:21:25.720Z,0
2017-12-25T03:22:28.138Z,0
2017-12-25T03:23:30.871Z,0
2017-12-25T03:24:33.292Z,0
2017-12-25T03:25:35.712Z,0
2017-12-25T03:26:38.129Z,0
2017-12-25T03:27:40.543Z,0
2017-12-25T03:28:43.232Z,0
2017-12-25T03:29:45.656Z,0
2017-12-25T03:30:48.357Z,0
2017-12-25T03:31:50.773Z,0
2017-12-25T03:32:53.507Z,0
2017-12-25T03:33:55.919Z,0
2017-12-25T03:34:58.697Z,0
2017-12-25T03:36:01.109Z,0
2017-12-25T03:37:03.590Z,0
2017-12-25T03:38:06.016Z,0
2017-12-25T03:39:08.432Z,0
2017-12-25T03:40:10.832Z,0
2017-12-25T03:41:13.346Z,0
2017-12-25T03:42:15.756Z,0
2017-12-25T03:43:18.170Z,0
2017-12-25T03:44:20.668Z,0
2017-12-25T03:45:23.132Z,0
2017-12-25T03:46:25.549Z,0
2017-12-25T03:47:27.976Z,0
2017-12-25T03:48:30.386Z,0
2017-12-25T03:49:32.807Z,0
2017-12-25T03:50:35.568Z,0
2017-12-25T03:51:38.293Z,0
2017-12-25T03:52:40.711Z,0
2017-12-25T03:53:43.128Z,0
2017-12-25T03:54:45.560Z,0
2017-12-25T03:55:47.980Z,0
2017-12-25T03:56:50.389Z,0
2017-12-25T03:57:52.812Z,0
2017-12-25T03:58:55.217Z,0
2017-12-25T03:59:57.646Z,0
2017-12-25T04:01:00.062Z,0
2017-12-25T04:02:02.477Z,0
2017-12-25T04:03:04.889Z,0
2017-12-25T04:04:07.320Z,0
2017-12-25T04:05:09.734Z,0
2017-12-25T04:06:12.425Z,0
2017-12-25T04:07:14.847Z,0
2017-12-25T04:08:17.257Z,0
2017-12-25T04:09:19.671Z,0
2017-12-25T04:10:22.374Z,0
2017-12-25T04:11:24.781Z,0
2017-12-25T04:12:27.475Z,0
2017-12-25T04:13:30.458Z,0
2017-12-25T04:14:32.876Z,0
2017-12-25T04:15:35.301Z,0
2017-12-25T04:16:37.713Z,0
2017-12-25T04:17:40.132Z,0
2017-12-25T04:18:42.547Z,0
2017-12-25T04:19:44.965Z,0
2017-12-25T04:20:47.388Z,0
2017-12-25T04:21:49.812Z,0
2017-12-25T04:22:52.212Z,0
2017-12-25T04:23:54.633Z,0
2017-12-25T04:24:57.059Z,0
2017-12-25T04:25:59.763Z,0
2017-12-25T04:27:02.177Z,0
2017-12-25T04:28:04.589Z,0
2017-12-25T04:29:06.997Z,0
2017-12-25T04:30:09.427Z,0
2017-12-25T04:31:11.832Z,0
2017-12-25T04:32:14.256Z,0
2017-12-25T04:33:16.674Z,0
2017-12-25T04:34:19.099Z,0
2017-12-25T04:35:21.515Z,0
2017-12-25T04:36:23.941Z,0
2017-12-25T04:37:26.341Z,0
2017-12-25T04:38:29.051Z,0
2017-12-25T04:39:31.470Z,0
2017-12-25T04:40:33.880Z,0
2017-12-25T04:41:36.301Z,0
2017-12-25T04:42:38.713Z,0
2017-12-25T04:43:41.132Z,0
2017-12-25T04:44:43.544Z,0
2017-12-25T04:45:45.971Z,0
2017-12-25T04:46:48.397Z,0
2017-12-25T04:47:50.796Z,0
2017-12-25T04:48:53.229Z,0
2017-12-25T04:49:55.640Z,0
2017-12-25T04:50:58.058Z,0
2017-12-25T04:52:00.464Z,0
2017-12-25T04:53:02.877Z,0
2017-12-25T04:54:05.291Z,0
2017-12-25T04:55:07.712Z,0
2017-12-25T04:56:10.122Z,0
2017-12-25T04:57:12.819Z,0
2017-12-25T04:58:15.245Z,0
2017-12-25T04:59:17.663Z,0
2017-12-25T05:00:20.078Z,0
2017-12-25T05:01:22.496Z,0
2017-12-25T05:02:24.908Z,0
2017-12-25T05:03:27.316Z,0
2017-12-25T05:04:29.735Z,0
2017-12-25T05:05:32.438Z,0
2017-12-25T05:06:34.856Z,0
2017-12-25T05:07:37.561Z,0
2017-12-25T05:08:40.023Z,0
2017-12-25T05:09:42.438Z,0
2017-12-25T05:10:44.858Z,0
2017-12-25T05:11:47.283Z,0
2017-12-25T05:12:49.977Z,0
2017-12-25T05:13:53.004Z,0
2017-12-25T05:14:55.409Z,0
2017-12-25T05:15:58.117Z,0
2017-12-25T05:17:00.823Z,0
2017-12-25T05:18:03.247Z,0
2017-12-25T05:19:05.661Z,0
2017-12-25T05:20:08.094Z,0
2017-12-25T05:21:10.505Z,0
2017-12-25T05:22:12.934Z,0
2017-12-25T05:23:15.347Z,0
2017-12-25T05:24:17.751Z,0
2017-12-25T05:25:20.208Z,0
2017-12-25T05:26:22.910Z,0
2017-12-25T05:27:25.907Z,0
2017-12-25T05:28:28.322Z,0
2017-12-25T05:29:30.751Z,0
2017-12-25T05:30:33.175Z,0
2017-12-25T05:31:35.581Z,0
2017-12-25T05:32:38.003Z,0
2017-12-25T05:33:40.428Z,0
2017-12-25T05:34:42.855Z,0
2017-12-25T05:35:45.278Z,0
2017-12-25T05:36:47.680Z,0
2017-12-25T05:37:50.098Z,0
2017-12-25T05:38:52.519Z,0
2017-12-25T05:39:54.944Z,0
2017-12-25T05:40:57.670Z,0
2017-12-25T05:42:00.084Z,0
2017-12-25T05:43:02.503Z,0
2017-12-25T05:44:04.922Z,0
2017-12-25T05:45:07.339Z,0
2017-12-25T05:46:09.772Z,0
2017-12-25T05:47:12.470Z,0
2017-12-25T05:48:14.896Z,0
2017-12-25T05:49:17.307Z,0
2017-12-25T05:50:19.732Z,0
2017-12-25T05:51:22.432Z,0
2017-12-25T05:52:24.835Z,0
2017-12-25T05:53:27.258Z,0
2017-12-25T05:54:29.683Z,0
2017-12-25T05:55:32.113Z,0
2017-12-25T05:56:34.528Z,0
2017-12-25T05:57:36.950Z,0
2017-12-25T05:58:39.661Z,0
2017-12-25T05:59:42.077Z,0
2017-12-25T06:00:44.493Z,0
2017-12-25T06:01:46.908Z,0
2017-12-25T06:02:49.602Z,0
2017-12-25T06:03:52.042Z,0
2017-12-25T06:04:54.460Z,0
2017-12-25T06:05:56.875Z,0
2017-12-25T06:06:59.303Z,0
2017-12-25T06:08:01.716Z,0
2017-12-25T06:09:04.141Z,0
2017-12-25T06:10:06.868Z,0
2017-12-25T06:11:09.289Z,0
2017-12-25T06:12:11.704Z,0
2017-12-25T06:13:14.114Z,0
2017-12-25T06:14:16.552Z,0
2017-12-25T06:15:18.968Z,0
2017-12-25T06:16:21.692Z,0
2017-12-25T06:17:24.109Z,0
2017-12-25T06:18:26.522Z,0
2017-12-25T06:19:28.952Z,0
2017-12-25T06:20:31.361Z,0
2017-12-25T06:21:34.083Z,0
2017-12-25T06:22:36.494Z,0
2017-12-25T06:23:38.911Z,0
2017-12-25T06:24:41.328Z,0
2017-12-25T06:25:43.746Z,0
2017-12-25T06:26:46.153Z,0
2017-12-25T06:27:48.573Z,0
2017-12-25T06:28:51.278Z,0
2017-12-25T06:29:53.970Z,0
2017-12-25T06:30:56.382Z,0
2017-12-25T06:31:58.804Z,0
2017-12-25T06:33:01.219Z,0
2017-12-25T06:34:03.632Z,0
2017-12-25T06:35:06.053Z,0
2017-12-25T06:36:08.734Z,0
2017-12-25T06:37:11.163Z,0
2017-12-25T06:38:13.581Z,0
2017-12-25T06:39:15.993Z,0
2017-12-25T06:40:18.409Z,0
2017-12-25T06:41:20.818Z,0
2017-12-25T06:42:23.233Z,0
2017-12-25T06:43:25.657Z,0
2017-12-25T06:44:28.063Z,0
2017-12-25T06:45:30.471Z,0
2017-12-25T06:46:32.885Z,0
2017-12-25T06:47:35.300Z,0
2017-12-25T06:48:37.716Z,0
2017-12-25T06:49:40.136Z,0
2017-12-25T06:50:42.551Z,0
2017-12-25T06:51:44.969Z,0
2017-12-25T06:52:47.384Z,0
2017-12-25T06:53:49.808Z,0
2017-12-25T06:54:52.226Z,0
2017-12-25T06:55:54.631Z,0
2017-12-25T06:56:57.053Z,0
2017-12-25T06:57:59.462Z,0
2017-12-25T06:59:01.872Z,0
2017-12-25T07:00:04.297Z,0
2017-12-25T07:01:06.719Z,0
2017-12-25T07:02:09.126Z,0
2017-12-25T07:03:11.549Z,0
2017-12-25T07:04:13.968Z,0
2017-12-25T07:05:16.379Z,0
2017-12-25T07:06:19.086Z,0
2017-12-25T07:07:21.517Z,0
2017-12-25T07:08:24.509Z,0
2017-12-25T07:09:26.942Z,0
2017-12-25T07:10:29.359Z,0
2017-12-25T07:11:33.088Z,0
2017-12-25T07:12:35.501Z,0
2017-12-25T07:13:38.219Z,0
2017-12-25T07:14:40.631Z,0
2017-12-25T07:15:43.043Z,0
2017-12-25T07:16:45.475Z,0
2017-12-25T07:17:47.887Z,0
2017-12-25T07:18:50.295Z,0
2017-12-25T07:19:53.010Z,0
2017-12-25T07:20:55.429Z,0
2017-12-25T07:21:57.842Z,0
2017-12-25T07:23:00.262Z,0
2017-12-25T07:24:02.681Z,0
2017-12-25T07:25:05.096Z,0
2017-12-25T07:26:07.528Z,0
2017-12-25T07:27:10.219Z,0
2017-12-25T07:28:12.646Z,0
2017-12-25T07:29:15.059Z,0
2017-12-25T07:30:17.485Z,0
2017-12-25T07:31:19.894Z,0
2017-12-25T07:32:22.316Z,0
2017-12-25T07:33:24.738Z,0
2017-12-25T07:34:27.455Z,0
2017-12-25T07:35:30.153Z,0
2017-12-25T07:36:32.567Z,0
2017-12-25T07:37:35.262Z,0
2017-12-25T07:38:37.681Z,0
2017-12-25T07:39:40.095Z,0
2017-12-25T07:40:42.527Z,0
2017-12-25T07:41:44.956Z,1
2017-12-25T07:42:47.648Z,1
2017-12-25T07:43:50.068Z,1
2017-12-25T07:44:52.518Z,1
2017-12-25T07:45:54.949Z,1
2017-12-25T07:46:57.677Z,1
2017-12-25T07:48:00.101Z,1
2017-12-25T07:49:02.532Z,2
2017-12-25T07:50:04.986Z,2
2017-12-25T07:51:07.410Z,3
2017-12-25T07:52:09.841Z,2
2017-12-25T07:53:12.263Z,3
2017-12-25T07:54:14.962Z,3
2017-12-25T07:55:17.666Z,2
2017-12-25T07:56:20.373Z,2
2017-12-25T07:57:22.801Z,1
2017-12-25T07:58:25.211Z,1
2017-12-25T07:59:27.622Z,2
2017-12-25T08:00:30.124Z,3
2017-12-25T08:01:32.608Z,3
2017-12-25T08:02:34.950Z,4
2017-12-25T08:03:37.370Z,4
2017-12-25T08:04:39.774Z,5
2017-12-25T08:05:42.188Z,5
2017-12-25T08:06:44.617Z,4
2017-12-25T08:07:47.025Z,4
2017-12-25T08:08:49.448Z,3
2017-12-25T08:09:51.865Z,4
2017-12-25T08:10:54.290Z,4
2017-12-25T08:11:56.998Z,4
2017-12-25T08:12:59.418Z,4
2017-12-25T08:14:02.114Z,5
2017-12-25T08:15:04.824Z,4
2017-12-25T08:16:07.242Z,4
2017-12-25T08:17:10.690Z,5
2017-12-25T08:18:13.090Z,5
2017-12-25T08:19:15.506Z,5
2017-12-25T08:20:17.923Z,4
2017-12-25T08:21:20.337Z,4
2017-12-25T08:22:27.664Z,5
2017-12-25T08:23:36.288Z,6
2017-12-25T08:24:44.231Z,6
2017-12-25T08:25:49.736Z,8
2017-12-25T08:26:57.390Z,6
2017-12-25T08:28:03.578Z,6
2017-12-25T08:29:06.914Z,6
2017-12-25T08:30:09.337Z,7
2017-12-25T08:31:11.753Z,5
2017-12-25T08:32:14.171Z,5
2017-12-25T08:33:16.577Z,5
2017-12-25T08:34:18.997Z,7
2017-12-25T08:35:21.701Z,7
2017-12-25T08:36:24.109Z,6
2017-12-25T08:37:26.535Z,5
2017-12-25T08:38:28.947Z,6
2017-12-25T08:39:31.416Z,7
2017-12-25T08:40:35.034Z,6
2017-12-25T08:41:37.447Z,5
2017-12-25T08:42:40.154Z,7
2017-12-25T08:43:42.603Z,7
2017-12-25T08:44:45.042Z,7
2017-12-25T08:45:47.466Z,9
2017-12-25T08:46:49.892Z,8
2017-12-25T08:47:52.589Z,5
2017-12-25T08:48:55.451Z,5
2017-12-25T08:49:58.513Z,7
2017-12-25T08:51:00.924Z,9
2017-12-25T08:52:03.635Z,8
2017-12-25T08:53:06.352Z,10
2017-12-25T08:54:08.766Z,8
2017-12-25T08:55:11.183Z,9
2017-12-25T08:56:13.699Z,9
2017-12-25T08:57:16.447Z,10
2017-12-25T08:58:20.060Z,10
2017-12-25T08:59:22.530Z,11
2017-12-25T09:00:24.949Z,13
2017-12-25T09:01:27.361Z,11
2017-12-25T09:02:29.780Z,13
2017-12-25T09:03:32.186Z,13
2017-12-25T09:04:34.615Z,14
2017-12-25T09:05:37.023Z,12
2017-12-25T09:06:39.919Z,14
2017-12-25T09:07:42.338Z,12
2017-12-25T09:08:44.744Z,13
2017-12-25T09:09:47.178Z,11
2017-12-25T09:10:49.593Z,10
2017-12-25T09:11:52.012Z,12
2017-12-25T09:12:54.431Z,11
2017-12-25T09:13:56.871Z,10
2017-12-25T09:14:59.294Z,11
2017-12-25T09:16:01.698Z,11
2017-12-25T09:17:04.119Z,11
2017-12-25T09:18:06.829Z,11
2017-12-25T09:19:09.560Z,10
2017-12-25T09:20:11.980Z,7
2017-12-25T09:21:14.400Z,10
2017-12-25T09:22:17.094Z,9
2017-12-25T09:23:19.531Z,8
2017-12-25T09:24:21.950Z,11
2017-12-25T09:25:24.388Z,11
2017-12-25T09:26:26.822Z,11
2017-12-25T09:27:29.274Z,11
2017-12-25T09:28:31.705Z,8
2017-12-25T09:29:34.169Z,10
2017-12-25T09:30:36.608Z,10
2017-12-25T09:31:39.060Z,9
2017-12-25T09:32:41.494Z,11
2017-12-25T09:33:43.943Z,11
2017-12-25T09:34:46.381Z,12
2017-12-25T09:35:49.105Z,12
2017-12-25T09:36:51.546Z,10
2017-12-25T09:37:53.991Z,10
2017-12-25T09:38:56.704Z,15
2017-12-25T09:39:59.437Z,13
2017-12-25T09:41:01.873Z,9
2017-12-25T09:42:04.330Z,8
2017-12-25T09:43:07.074Z,10
2017-12-25T09:44:09.511Z,12
2017-12-25T09:45:11.945Z,13
2017-12-25T09:46:14.375Z,11
2017-12-25T09:47:16.807Z,13
2017-12-25T09:48:19.241Z,13
2017-12-25T09:49:21.664Z,10
2017-12-25T09:50:24.103Z,9
2017-12-25T09:51:26.844Z,11
2017-12-25T09:52:29.571Z,13
2017-12-25T09:53:32.027Z,16
2017-12-25T09:54:34.492Z,14
2017-12-25T09:55:36.925Z,20
2017-12-25T09:56:39.649Z,21
2017-12-25T09:57:42.077Z,19
2017-12-25T09:58:45.112Z,15
2017-12-25T09:59:47.574Z,14
2017-12-25T10:00:50.005Z,14
2017-12-25T10:01:52.733Z,17
2017-12-25T10:02:55.171Z,20
2017-12-25T10:03:57.616Z,18
2017-12-25T10:05:00.054Z,16
2017-12-25T10:06:02.482Z,15
2017-12-25T10:07:04.916Z,16
2017-12-25T10:08:07.349Z,16
2017-12-25T10:09:09.805Z,14
2017-12-25T10:10:12.528Z,13
2017-12-25T10:11:14.965Z,14
2017-12-25T10:12:17.386Z,15
2017-12-25T10:13:19.826Z,14
2017-12-25T10:14:22.249Z,14
2017-12-25T10:15:24.687Z,17
2017-12-25T10:16:27.141Z,19
2017-12-25T10:17:29.892Z,19
2017-12-25T10:18:32.326Z,18
2017-12-25T10:19:34.782Z,14
2017-12-25T10:20:37.213Z,14
2017-12-25T10:21:39.674Z,12
2017-12-25T10:22:42.139Z,12
2017-12-25T10:23:44.567Z,11
2017-12-25T10:24:47.000Z,13
2017-12-25T10:25:49.470Z,15
2017-12-25T10:26:51.903Z,15
2017-12-25T10:27:54.326Z,13
2017-12-25T10:28:57.055Z,11
2017-12-25T10:29:59.707Z,17
2017-12-25T10:31:02.155Z,18
2017-12-25T10:32:04.952Z,16
2017-12-25T10:33:07.378Z,13
2017-12-25T10:34:12.232Z,10
2017-12-25T10:35:17.015Z,12
2017-12-25T10:36:21.089Z,14
2017-12-25T10:37:23.785Z,13
2017-12-25T10:38:26.352Z,12
2017-12-25T10:39:28.807Z,15
2017-12-25T10:40:31.282Z,14
2017-12-25T10:41:33.730Z,11
2017-12-25T10:42:36.167Z,14
2017-12-25T10:43:38.599Z,11
2017-12-25T10:44:41.038Z,12
2017-12-25T10:45:43.483Z,13
2017-12-25T10:46:45.945Z,11
2017-12-25T10:47:48.384Z,9
2017-12-25T10:48:50.810Z,11
2017-12-25T10:49:53.262Z,10
2017-12-25T10:50:55.699Z,9
2017-12-25T10:51:58.133Z,7
2017-12-25T10:53:00.570Z,7
2017-12-25T10:54:02.994Z,9
2017-12-25T10:55:05.434Z,8
2017-12-25T10:56:08.149Z,9
2017-12-25T10:57:10.553Z,8
2017-12-25T10:58:12.975Z,9
2017-12-25T10:59:15.385Z,8
2017-12-25T11:00:17.806Z,8
2017-12-25T11:01:20.500Z,9
2017-12-25T11:02:22.921Z,9
2017-12-25T11:03:25.338Z,7
2017-12-25T11:04:27.760Z,8
2017-12-25T11:05:30.181Z,10
2017-12-25T11:06:32.882Z,13
2017-12-25T11:07:35.303Z,14
2017-12-25T11:08:37.719Z,13
2017-12-25T11:09:40.133Z,12
2017-12-25T11:10:42.844Z,9
2017-12-25T11:11:45.246Z,11
2017-12-25T11:12:47.675Z,14
2017-12-25T11:13:50.090Z,12
2017-12-25T11:14:52.512Z,11
2017-12-25T11:15:55.215Z,12
2017-12-25T11:16:57.642Z,9
2017-12-25T11:18:00.331Z,12
2017-12-25T11:19:02.756Z,12
2017-12-25T11:20:05.180Z,12
2017-12-25T11:21:07.590Z,13
2017-12-25T11:22:10.019Z,12
2017-12-25T11:23:12.424Z,13
2017-12-25T11:24:14.842Z,13
2017-12-25T11:25:17.261Z,13
2017-12-25T11:26:19.669Z,14
2017-12-25T11:27:22.088Z,13
2017-12-25T11:28:24.502Z,13
2017-12-25T11:29:26.913Z,12
2017-12-25T11:30:29.329Z,13
2017-12-25T11:31:31.743Z,12
2017-12-25T11:32:34.164Z,10
2017-12-25T11:33:36.895Z,12
2017-12-25T11:34:39.340Z,12
2017-12-25T11:35:41.760Z,12
2017-12-25T11:36:44.171Z,9
2017-12-25T11:37:46.604Z,9
2017-12-25T11:38:49.009Z,8
2017-12-25T11:39:51.429Z,9
2017-12-25T11:40:53.840Z,11
2017-12-25T11:41:56.561Z,12
2017-12-25T11:42:58.971Z,8
2017-12-25T11:44:01.386Z,10
2017-12-25T11:45:03.802Z,11
2017-12-25T11:46:06.218Z,11
2017-12-25T11:47:08.639Z,9
2017-12-25T11:48:11.058Z,9
2017-12-25T11:49:13.476Z,14
2017-12-25T11:50:15.892Z,10
2017-12-25T11:51:18.321Z,8
2017-12-25T11:52:20.733Z,7
2017-12-25T11:53:23.420Z,9
2017-12-25T11:54:25.840Z,12
2017-12-25T11:55:28.269Z,13
2017-12-25T11:56:30.680Z,14
2017-12-25T11:57:33.097Z,15
2017-12-25T11:58:35.503Z,16
2017-12-25T11:59:37.925Z,16
2017-12-25T12:00:40.339Z,15
2017-12-25T12:01:42.761Z,15
2017-12-25T12:02:45.164Z,18
2017-12-25T12:03:47.873Z,20
2017-12-25T12:04:50.285Z,16
2017-12-25T12:05:52.979Z,15
2017-12-25T12:06:55.397Z,19
2017-12-25T12:07:57.814Z,15
2017-12-25T12:09:00.223Z,14
2017-12-25T12:10:02.937Z,13
2017-12-25T12:11:05.658Z,14
2017-12-25T12:12:08.360Z,13
2017-12-25T12:13:10.776Z,14
2017-12-25T12:14:13.479Z,15
2017-12-25T12:15:15.887Z,16
2017-12-25T12:16:18.602Z,14
2017-12-25T12:17:20.995Z,12
2017-12-25T12:18:23.418Z,10
2017-12-25T12:19:27.258Z,10
2017-12-25T12:20:29.673Z,11
2017-12-25T12:21:32.164Z,9
2017-12-25T12:22:34.582Z,9
2017-12-25T12:23:37.003Z,12
2017-12-25T12:24:39.421Z,8
2017-12-25T12:25:42.120Z,10
2017-12-25T12:26:44.837Z,7
2017-12-25T12:27:47.243Z,7
2017-12-25T12:28:49.672Z,8
2017-12-25T12:29:52.087Z,8
2017-12-25T12:30:55.093Z,6
2017-12-25T12:31:58.328Z,7
2017-12-25T12:33:01.047Z,5
2017-12-25T12:34:03.941Z,6
2017-12-25T12:35:07.755Z,6
2017-12-25T12:36:15.146Z,5
2017-12-25T12:37:20.952Z,6
2017-12-25T12:38:23.369Z,6
2017-12-25T12:39:25.782Z,5
2017-12-25T12:40:28.477Z,4
2017-12-25T12:41:31.341Z,7
2017-12-25T12:42:34.144Z,6
2017-12-25T12:43:36.769Z,6
2017-12-25T12:44:39.522Z,7
2017-12-25T12:45:41.957Z,6
2017-12-25T12:46:44.695Z,7
2017-12-25T12:47:47.362Z,8
2017-12-25T12:48:49.969Z,7
2017-12-25T12:49:52.429Z,9
2017-12-25T12:50:54.840Z,9
2017-12-25T12:51:57.270Z,8
2017-12-25T12:52:59.968Z,11
2017-12-25T12:54:02.379Z,8
2017-12-25T12:55:04.793Z,8
2017-12-25T12:56:07.222Z,9
2017-12-25T12:57:09.917Z,6
2017-12-25T12:58:12.336Z,7
2017-12-25T12:59:14.756Z,9
2017-12-25T13:00:17.250Z,8
2017-12-25T13:01:19.757Z,8
2017-12-25T13:02:22.255Z,9
2017-12-25T13:03:24.786Z,7
2017-12-25T13:04:27.279Z,10
2017-12-25T13:05:29.820Z,11
2017-12-25T13:06:32.324Z,11
2017-12-25T13:07:35.095Z,10
2017-12-25T13:08:37.621Z,11
2017-12-25T13:09:40.138Z,11
2017-12-25T13:10:42.648Z,10
2017-12-25T13:11:45.182Z,9
2017-12-25T13:12:47.686Z,9
2017-12-25T13:13:50.491Z,8
2017-12-25T13:14:53.014Z,9
2017-12-25T13:15:57.032Z,9
2017-12-25T13:16:59.839Z,7
2017-12-25T13:18:02.405Z,6
2017-12-25T13:19:04.899Z,7
2017-12-25T13:20:07.427Z,6
2017-12-25T13:21:09.929Z,7
2017-12-25T13:22:12.750Z,6
2017-12-25T13:23:15.241Z,6
2017-12-25T13:24:17.789Z,6
2017-12-25T13:25:20.282Z,7
2017-12-25T13:26:22.792Z,6
2017-12-25T13:27:25.290Z,7
2017-12-25T13:28:27.818Z,6
2017-12-25T13:29:30.318Z,6
2017-12-25T13:30:32.822Z,6
2017-12-25T13:31:35.301Z,6
2017-12-25T13:32:37.806Z,6
2017-12-25T13:33:40.345Z,7
2017-12-25T13:34:43.171Z,7
2017-12-25T13:35:45.674Z,8
2017-12-25T13:36:48.195Z,8
2017-12-25T13:37:50.698Z,6
2017-12-25T13:38:53.195Z,7
2017-12-25T13:39:55.749Z,6
2017-12-25T13:40:58.248Z,5
2017-12-25T13:42:01.049Z,6
2017-12-25T13:43:03.919Z,5
2017-12-25T13:44:06.423Z,4
2017-12-25T13:45:09.005Z,5
2017-12-25T13:46:11.661Z,4
2017-12-25T13:47:14.507Z,4
2017-12-25T13:48:17.184Z,5
2017-12-25T13:49:19.884Z,5
2017-12-25T13:50:22.517Z,4
2017-12-25T13:51:25.017Z,5
2017-12-25T13:52:27.829Z,5
2017-12-25T13:53:30.619Z,4
2017-12-25T13:54:33.111Z,6
2017-12-25T13:55:35.630Z,7
2017-12-25T13:56:38.189Z,6
2017-12-25T13:57:40.675Z,5
2017-12-25T13:58:43.492Z,5
2017-12-25T13:59:46.014Z,6
2017-12-25T14:00:48.516Z,6
2017-12-25T14:01:51.042Z,7
2017-12-25T14:02:53.540Z,8
2017-12-25T14:03:56.069Z,7
2017-12-25T14:04:58.583Z,7
2017-12-25T14:06:01.139Z,7
2017-12-25T14:07:03.974Z,7
2017-12-25T14:08:06.843Z,7
2017-12-25T14:09:09.384Z,7
2017-12-25T14:10:12.187Z,6
2017-12-25T14:11:14.682Z,6
2017-12-25T14:12:17.240Z,6
2017-12-25T14:13:19.747Z,7
2017-12-25T14:14:22.248Z,6
2017-12-25T14:15:25.327Z,4
2017-12-25T14:16:27.852Z,4
2017-12-25T14:17:30.924Z,4
2017-12-25T14:18:33.438Z,4
2017-12-25T14:19:35.974Z,3
2017-12-25T14:20:38.464Z,3
2017-12-25T14:21:40.965Z,2
2017-12-25T14:22:43.459Z,2
2017-12-25T14:23:46.033Z,2
2017-12-25T14:24:48.528Z,1
2017-12-25T14:25:51.025Z,1
2017-12-25T14:26:53.524Z,1
2017-12-25T14:27:56.031Z,2
2017-12-25T14:28:59.311Z,1
2017-12-25T14:30:02.747Z,1
2017-12-25T14:31:05.437Z,1
2017-12-25T14:32:08.107Z,1
2017-12-25T14:33:12.825Z,1
2017-12-25T14:34:16.109Z,1
2017-12-25T14:35:19.012Z,1
2017-12-25T14:36:21.837Z,1
2017-12-25T14:37:25.568Z,1
2017-12-25T14:38:29.144Z,1
2017-12-25T14:39:32.383Z,1
2017-12-25T14:40:35.363Z,1
2017-12-25T14:41:40.020Z,1
2017-12-25T14:42:44.012Z,1
2017-12-25T14:43:47.448Z,1
2017-12-25T14:44:50.401Z,0
2017-12-25T14:45:54.522Z,0
2017-12-25T14:46:58.597Z,0
2017-12-25T14:48:04.350Z,0
2017-12-25T14:49:08.135Z,0
2017-12-25T14:50:10.973Z,1
2017-12-25T14:51:13.675Z,1
2017-12-25T14:52:16.680Z,1
2017-12-25T14:53:20.429Z,1
2017-12-25T14:54:24.154Z,0
2017-12-25T14:55:28.296Z,0
2017-12-25T14:56:31.161Z,0
2017-12-25T14:58:37.970Z,0
2017-12-25T14:59:40.474Z,0
2017-12-25T15:00:42.972Z,0
2017-12-25T15:01:45.467Z,0
2017-12-25T15:02:47.976Z,0
2017-12-25T15:03:50.465Z,0
2017-12-25T15:04:53.006Z,0
2017-12-25T15:05:55.483Z,0
2017-12-25T15:06:57.972Z,0
2017-12-25T15:08:00.486Z,0
2017-12-25T15:09:02.981Z,0
2017-12-25T15:10:05.477Z,0
2017-12-25T15:11:08.270Z,0
2017-12-25T15:12:10.768Z,0
2017-12-25T15:13:13.295Z,0
2017-12-25T15:14:15.796Z,0
2017-12-25T15:15:18.588Z,0
2017-12-25T15:16:21.083Z,0
2017-12-25T15:17:23.890Z,0
2017-12-25T15:18:26.382Z,0
2017-12-25T15:19:29.359Z,0